Time;durP1;ratioP1;P1;durP2;ratioP2;P2;SDS_P1;SDS_P2;PMS_P1;PMS_P2;Temp;Humidity;BMP_temperature;BMP_pressure;BME280_temperature;BME280_humidity;BME280_pressure;Samples;Min_cycle;Max_cycle;Signal;HPM_P1;HPM_P2
2021/10/02 00:34:27;;;;;;;4.50;3.70;;;10.60;97.30;;;;;;5094839;28;20526;-79
2021/10/02 00:37:19;;;;;;;5.30;4.03;;;10.60;97.30;;;;;;5093404;28;20412;-81
2021/10/02 00:45:12;;;;;;;6.87;3.30;;;10.50;97.30;;;;;;5094544;28;21016;-81
2021/10/02 00:47:38;;;;;;;6.10;4.13;;;10.60;97.30;;;;;;5092378;28;20532;-79
2021/10/02 00:50:06;;;;;;;5.33;3.60;;;10.60;97.30;;;;;;5092955;28;20210;-81
2021/10/02 00:52:31;;;;;;;4.97;3.60;;;10.60;97.30;;;;;;5093073;28;20259;-80
2021/10/02 00:54:57;;;;;;;11.00;4.30;;;10.60;97.30;;;;;;5092395;28;20521;-80
2021/10/02 00:57:23;;;;;;;6.73;3.50;;;10.70;97.30;;;;;;5092790;28;20574;-80
2021/10/02 00:59:49;;;;;;;11.40;3.60;;;10.70;97.30;;;;;;5092773;28;20191;-81
2021/10/02 01:02:24;;;;;;;7.03;3.33;;;10.70;97.30;;;;;;5092438;28;20179;-81
2021/10/02 01:05:07;;;;;;;7.23;3.60;;;10.60;97.30;;;;;;5093411;28;21035;-80
2021/10/02 01:07:47;;;;;;;8.30;4.00;;;10.60;97.30;;;;;;5095495;28;20392;-81
2021/10/02 01:10:22;;;;;;;3.63;3.20;;;10.60;97.30;;;;;;5094129;28;20472;-81
2021/10/02 01:13:17;;;;;;;5.67;3.43;;;10.50;97.30;;;;;;5094499;28;20436;-81
2021/10/02 01:15:51;;;;;;;8.17;4.87;;;10.50;97.30;;;;;;5094725;28;20420;-80
2021/10/02 01:18:28;;;;;;;5.30;3.70;;;10.50;97.30;;;;;;5094118;28;20408;-80
2021/10/02 01:21:13;;;;;;;8.67;3.70;;;10.50;97.30;;;;;;5094376;28;20416;-81
2021/10/02 01:24:00;;;;;;;4.23;3.47;;;10.50;97.30;;;;;;5087181;28;20464;-80
2021/10/02 01:26:41;;;;;;;8.03;3.80;;;10.50;97.30;;;;;;5094208;28;20490;-81
2021/10/02 01:29:08;;;;;;;4.90;3.50;;;10.50;97.30;;;;;;5094565;28;20456;-80
2021/10/02 01:31:48;;;;;;;5.40;3.43;;;10.40;97.30;;;;;;5094253;28;20424;-81
2021/10/02 01:34:24;;;;;;;4.00;3.30;;;10.30;97.30;;;;;;5093937;28;20802;-80
2021/10/02 01:47:59;;;;;;;8.57;3.60;;;10.20;97.30;;;;;;5097812;28;21075;-80
2021/10/02 01:50:30;;;;;;;7.37;3.50;;;10.20;97.30;;;;;;5096649;28;20538;-80
2021/10/02 01:53:01;;;;;;;5.93;4.20;;;10.10;97.30;;;;;;5094480;28;20412;-81
2021/10/02 01:55:29;;;;;;;6.00;4.00;;;10.10;97.30;;;;;;5092289;28;20926;-81
2021/10/02 01:58:05;;;;;;;7.00;3.80;;;10.10;97.30;;;;;;5092357;28;20977;-80
2021/10/02 02:00:32;;;;;;;8.83;3.50;;;10.00;97.30;;;;;;5091926;28;20416;-81
2021/10/02 02:03:03;;;;;;;4.57;3.37;;;10.00;97.30;;;;;;5094115;28;20416;-81
2021/10/02 02:05:30;;;;;;;5.53;3.60;;;10.00;97.30;;;;;;5093810;28;20424;-81
2021/10/02 02:08:01;;;;;;;5.43;3.70;;;10.00;97.30;;;;;;5093578;28;20412;-81
2021/10/02 02:10:28;;;;;;;6.70;4.10;;;10.00;97.30;;;;;;5095460;28;20480;-80
2021/10/02 02:12:57;;;;;;;8.00;4.03;;;10.00;97.30;;;;;;5095007;28;20428;-81
2021/10/02 02:15:25;;;;;;;6.17;4.20;;;10.00;97.30;;;;;;5095246;28;20415;-81
2021/10/02 02:18:01;;;;;;;5.93;3.90;;;9.90;97.30;;;;;;5092918;28;20978;-81
2021/10/02 02:20:34;;;;;;;6.97;4.00;;;10.00;97.30;;;;;;5093225;28;20928;-81
2021/10/02 02:23:00;;;;;;;6.00;4.00;;;10.00;97.30;;;;;;5094690;28;20429;-80
2021/10/02 02:25:27;;;;;;;8.37;3.97;;;10.00;97.30;;;;;;5093536;28;20518;-80
2021/10/02 02:27:54;;;;;;;5.40;3.90;;;10.10;97.30;;;;;;5093734;28;20416;-81
2021/10/02 02:30:20;;;;;;;4.37;3.63;;;10.10;97.30;;;;;;5093159;28;20811;-80
2021/10/02 02:32:46;;;;;;;6.77;4.00;;;10.10;97.30;;;;;;5092604;28;20937;-80
2021/10/02 02:35:13;;;;;;;6.13;4.00;;;10.10;97.30;;;;;;5093128;28;20910;-81
2021/10/02 02:37:39;;;;;;;5.30;4.00;;;10.20;97.30;;;;;;5093434;28;20939;-81
2021/10/02 02:40:06;;;;;;;5.27;3.70;;;10.20;97.30;;;;;;5094397;28;20420;-81
2021/10/02 02:42:32;;;;;;;7.07;4.10;;;10.30;97.30;;;;;;5093250;28;20213;-81
2021/10/02 02:44:58;;;;;;;6.60;4.40;;;10.30;97.30;;;;;;5093694;28;20455;-81
2021/10/02 02:47:28;;;;;;;8.30;3.93;;;10.30;97.30;;;;;;5092802;28;20446;-81
2021/10/02 02:49:59;;;;;;;4.97;3.60;;;10.30;97.30;;;;;;5093070;28;20484;-80
2021/10/02 02:52:33;;;;;;;4.47;3.47;;;10.40;97.30;;;;;;5094405;28;20773;-81
2021/10/02 02:55:07;;;;;;;6.40;3.40;;;10.40;97.30;;;;;;5093437;28;20888;-81
2021/10/02 02:57:42;;;;;;;6.97;4.00;;;10.40;97.30;;;;;;5096683;28;20466;-81
2021/10/02 03:00:13;;;;;;;5.53;3.90;;;10.30;97.30;;;;;;5097112;28;20415;-81
2021/10/02 03:02:44;;;;;;;5.30;3.83;;;10.30;97.30;;;;;;5096909;28;20835;-81
2021/10/02 03:05:10;;;;;;;7.17;4.10;;;10.30;97.30;;;;;;5098050;28;20416;-81
2021/10/02 03:07:46;;;;;;;6.87;3.80;;;10.30;97.30;;;;;;5097621;28;20505;-81
2021/10/02 03:10:13;;;;;;;7.10;4.03;;;10.30;97.30;;;;;;5096612;28;20473;-81
2021/10/02 03:12:42;;;;;;;5.00;3.90;;;10.20;97.30;;;;;;5096925;28;20485;-81
2021/10/02 03:15:12;;;;;;;6.00;3.50;;;10.20;97.30;;;;;;5098632;28;20432;-80
2021/10/02 03:17:38;;;;;;;5.40;3.83;;;10.30;97.30;;;;;;5098762;28;20890;-80
2021/10/02 03:20:07;;;;;;;7.77;4.00;;;10.30;97.30;;;;;;5098179;28;20507;-80
2021/10/02 03:22:33;;;;;;;6.67;4.13;;;10.30;97.30;;;;;;5098398;28;20417;-80
2021/10/02 03:25:00;;;;;;;5.00;3.80;;;10.30;97.30;;;;;;5098545;28;20447;-80
2021/10/02 03:27:27;;;;;;;4.80;3.70;;;10.30;97.30;;;;;;5099418;28;20501;-80
2021/10/02 03:29:54;;;;;;;5.43;3.63;;;10.30;97.30;;;;;;5098209;28;20464;-80
2021/10/02 03:32:20;;;;;;;9.13;4.83;;;10.30;97.30;;;;;;5099748;28;20518;-81
2021/10/02 03:34:46;;;;;;;5.43;4.33;;;10.30;97.30;;;;;;5095403;28;20441;-80
2021/10/02 03:37:12;;;;;;;4.77;3.70;;;10.20;97.30;;;;;;5097183;28;20451;-81
2021/10/02 03:39:37;;;;;;;5.40;3.73;;;10.20;97.30;;;;;;5097822;28;20902;-80
2021/10/02 03:42:10;;;;;;;5.77;3.80;;;10.20;97.30;;;;;;5098077;28;20178;-80
2021/10/02 03:44:42;;;;;;;4.50;3.60;;;10.20;97.30;;;;;;5099010;28;20209;-80
2021/10/02 03:47:13;;;;;;;9.63;3.60;;;10.20;97.30;;;;;;5097904;28;20460;-80
2021/10/02 03:49:39;;;;;;;7.37;4.60;;;10.20;97.30;;;;;;5097729;28;20466;-81
2021/10/02 03:52:05;;;;;;;5.93;3.80;;;10.20;97.30;;;;;;5097170;28;20894;-80
2021/10/02 03:54:31;;;;;;;6.23;3.97;;;10.10;97.30;;;;;;5097491;28;20527;-80
2021/10/02 03:56:56;;;;;;;4.47;3.30;;;10.10;97.30;;;;;;5097844;28;20463;-80
2021/10/02 03:59:22;;;;;;;7.13;4.63;;;10.20;97.30;;;;;;5097585;28;20174;-80
2021/10/02 04:01:48;;;;;;;5.00;3.87;;;10.20;97.30;;;;;;5097194;28;20198;-80
2021/10/02 04:04:13;;;;;;;6.77;4.17;;;10.20;97.30;;;;;;5097663;28;20802;-80
2021/10/02 04:06:39;;;;;;;5.13;3.90;;;10.20;97.30;;;;;;5096920;28;20185;-80
2021/10/02 04:09:05;;;;;;;8.03;3.80;;;10.20;97.30;;;;;;5097015;28;20230;-80
2021/10/02 04:11:32;;;;;;;5.50;4.20;;;10.20;97.30;;;;;;5097686;28;20174;-80
2021/10/02 04:13:58;;;;;;;4.13;3.23;;;10.20;97.30;;;;;;5096914;28;20907;-81
2021/10/02 04:16:24;;;;;;;9.13;4.37;;;10.20;97.30;;;;;;5097157;28;20413;-80
2021/10/02 04:18:49;;;;;;;5.03;3.63;;;10.20;97.30;;;;;;5096834;28;20424;-81
2021/10/02 04:21:15;;;;;;;6.37;4.50;;;10.20;97.30;;;;;;5097157;28;20287;-80
2021/10/02 04:23:40;;;;;;;5.20;3.70;;;10.20;97.30;;;;;;5097234;28;20198;-80
2021/10/02 04:26:06;;;;;;;8.60;4.20;;;10.20;97.30;;;;;;5096557;28;20191;-80
2021/10/02 04:28:32;;;;;;;4.67;3.73;;;10.20;97.30;;;;;;5097107;28;20178;-80
2021/10/02 04:31:02;;;;;;;5.70;4.50;;;10.20;97.30;;;;;;5096914;28;20175;-80
2021/10/02 04:33:28;;;;;;;7.03;4.00;;;10.30;97.30;;;;;;5096641;28;20206;-80
2021/10/02 04:35:54;;;;;;;8.80;4.07;;;10.30;97.30;;;;;;5096669;28;20420;-80
2021/10/02 04:38:19;;;;;;;12.53;3.60;;;10.30;97.30;;;;;;5097100;28;20178;-80
2021/10/02 04:40:45;;;;;;;7.87;4.67;;;10.30;97.30;;;;;;5097444;28;20181;-80
2021/10/02 04:43:10;;;;;;;3.90;3.60;;;10.30;97.30;;;;;;5096591;28;20580;-81
2021/10/02 04:45:36;;;;;;;7.00;4.10;;;10.30;97.30;;;;;;5097045;28;20336;-81
2021/10/02 04:48:02;;;;;;;7.47;4.50;;;10.20;97.30;;;;;;5096220;28;20286;-80
2021/10/02 04:50:27;;;;;;;7.13;3.93;;;10.30;97.30;;;;;;5098172;28;20281;-81
2021/10/02 04:52:54;;;;;;;8.20;4.17;;;10.30;97.30;;;;;;5096666;28;20202;-81
2021/10/02 04:55:21;;;;;;;4.80;4.00;;;10.30;97.30;;;;;;5096676;28;20177;-80
2021/10/02 04:57:46;;;;;;;7.87;4.30;;;10.30;97.30;;;;;;5096216;28;20999;-81
2021/10/02 05:00:12;;;;;;;5.37;3.73;;;10.30;97.30;;;;;;5097642;28;20436;-80
2021/10/02 05:02:38;;;;;;;5.20;4.07;;;10.30;97.30;;;;;;5096368;28;20178;-80
2021/10/02 05:05:04;;;;;;;5.73;3.80;;;10.30;97.30;;;;;;5096685;28;20436;-81
2021/10/02 05:07:29;;;;;;;6.10;3.60;;;10.30;97.30;;;;;;5095959;28;20174;-80
2021/10/02 05:09:55;;;;;;;5.00;4.17;;;10.30;97.30;;;;;;5096676;28;20511;-81
2021/10/02 05:12:20;;;;;;;5.90;3.87;;;10.30;97.30;;;;;;5089604;28;20170;-80
2021/10/02 05:14:46;;;;;;;11.30;4.10;;;10.30;97.30;;;;;;5094417;28;20228;-80
2021/10/02 05:17:13;;;;;;;7.17;3.87;;;10.30;97.30;;;;;;5091898;28;20176;-80
2021/10/02 05:19:40;;;;;;;5.63;4.00;;;10.40;97.30;;;;;;5084052;28;20183;-80
2021/10/02 05:22:06;;;;;;;6.50;3.97;;;10.40;97.30;;;;;;5092159;28;20431;-81
2021/10/02 05:24:36;;;;;;;4.70;4.20;;;10.40;97.30;;;;;;5091402;28;20434;-79
2021/10/02 05:27:09;;;;;;;6.37;4.03;;;10.50;97.30;;;;;;5087822;28;20418;-81
2021/10/02 05:29:37;;;;;;;7.57;4.00;;;10.50;97.30;;;;;;5087733;28;20456;-80
2021/10/02 05:32:04;;;;;;;3.70;3.60;;;10.50;97.30;;;;;;5091839;28;20416;-80
2021/10/02 05:34:30;;;;;;;6.80;4.30;;;10.60;97.30;;;;;;5091896;28;20436;-80
2021/10/02 05:36:56;;;;;;;4.97;3.43;;;10.60;97.30;;;;;;5092808;28;20459;-80
2021/10/02 05:39:22;;;;;;;8.27;4.30;;;10.60;97.30;;;;;;5090839;28;20418;-79
2021/10/02 05:41:48;;;;;;;8.90;4.70;;;10.60;97.30;;;;;;5092717;28;20419;-81
2021/10/02 05:44:13;;;;;;;7.20;4.50;;;10.60;97.30;;;;;;5096475;28;20216;-80
2021/10/02 05:46:39;;;;;;;6.07;4.40;;;10.60;97.30;;;;;;5083431;28;20179;-81
2021/10/02 05:49:05;;;;;;;7.63;4.57;;;10.60;97.30;;;;;;5080534;28;20195;-80
2021/10/02 05:51:30;;;;;;;7.10;4.73;;;10.70;97.30;;;;;;5079442;28;20175;-81
2021/10/02 05:53:57;;;;;;;7.90;5.00;;;10.70;97.30;;;;;;5083968;28;20696;-81
2021/10/02 05:56:24;;;;;;;8.07;4.37;;;10.70;97.30;;;;;;5088312;28;20178;-80
2021/10/02 05:58:51;;;;;;;6.50;4.20;;;10.80;97.30;;;;;;5091610;28;20417;-81
2021/10/02 06:01:17;;;;;;;6.10;4.03;;;10.80;97.30;;;;;;5088190;28;20831;-80
2021/10/02 06:03:43;;;;;;;15.53;4.60;;;10.80;97.30;;;;;;5085359;28;20504;-80
2021/10/02 06:06:09;;;;;;;6.70;4.27;;;10.80;97.30;;;;;;5078157;28;20456;-80
2021/10/02 06:08:34;;;;;;;5.40;4.37;;;10.90;97.30;;;;;;5074272;28;20226;-81
2021/10/02 06:11:00;;;;;;;5.53;4.13;;;10.90;97.30;;;;;;5075665;28;20182;-81
2021/10/02 06:13:26;;;;;;;6.70;3.90;;;10.90;97.30;;;;;;5074354;28;20324;-80
2021/10/02 06:15:52;;;;;;;9.57;4.90;;;11.00;97.30;;;;;;5074138;28;20467;-80
2021/10/02 06:18:18;;;;;;;9.77;5.00;;;11.00;97.30;;;;;;5074549;28;20179;-81
2021/10/02 06:20:43;;;;;;;7.43;4.73;;;11.00;97.30;;;;;;5076426;28;20532;-81
2021/10/02 06:23:09;;;;;;;7.73;5.23;;;11.10;97.30;;;;;;5074461;28;20202;-81
2021/10/02 06:25:35;;;;;;;11.33;6.17;;;11.10;97.30;;;;;;5074394;28;20179;-81
2021/10/02 06:28:01;;;;;;;9.57;5.37;;;11.20;97.30;;;;;;5074327;28;20187;-81
2021/10/02 06:30:27;;;;;;;7.13;5.07;;;11.20;97.30;;;;;;5075634;28;20495;-80
2021/10/02 06:32:53;;;;;;;8.43;5.50;;;11.30;97.30;;;;;;5078869;28;20418;-81
2021/10/02 06:35:18;;;;;;;11.07;5.50;;;11.30;97.30;;;;;;5084161;28;20175;-80
2021/10/02 06:37:45;;;;;;;8.77;5.30;;;11.30;97.30;;;;;;5096647;28;20187;-80
2021/10/02 06:40:11;;;;;;;5.80;4.40;;;11.30;97.30;;;;;;5095668;28;20182;-80
2021/10/02 06:42:37;;;;;;;8.47;4.87;;;11.40;97.30;;;;;;5087567;28;20430;-80
2021/10/02 06:45:07;;;;;;;8.37;5.30;;;11.40;97.30;;;;;;5099429;28;20448;-80
2021/10/02 06:47:32;;;;;;;5.93;4.20;;;11.40;97.30;;;;;;5085062;28;20175;-80
2021/10/02 06:49:59;;;;;;;9.73;5.33;;;11.50;97.30;;;;;;5091827;28;20471;-80
2021/10/02 06:52:26;;;;;;;7.40;4.73;;;11.50;97.30;;;;;;5098987;28;20413;-80
2021/10/02 06:54:53;;;;;;;9.27;5.03;;;11.50;97.30;;;;;;5098710;28;20864;-80
2021/10/02 06:57:19;;;;;;;7.30;4.83;;;11.60;97.30;;;;;;5099610;28;20777;-80
2021/10/02 06:59:45;;;;;;;12.80;5.37;;;11.60;97.30;;;;;;5099158;28;20416;-80
2021/10/02 07:02:10;;;;;;;9.50;4.63;;;11.70;97.30;;;;;;5099730;28;20420;-80
2021/10/02 07:04:37;;;;;;;7.20;4.37;;;11.80;97.30;;;;;;5100350;28;20206;-80
2021/10/02 07:07:03;;;;;;;9.03;5.73;;;11.90;97.30;;;;;;5100656;28;20182;-80
2021/10/02 07:09:29;;;;;;;10.27;4.70;;;12.00;97.30;;;;;;5099144;28;20476;-80
2021/10/02 07:11:55;;;;;;;8.30;4.90;;;12.00;97.30;;;;;;5099197;28;20461;-81
2021/10/02 07:14:20;;;;;;;6.73;4.40;;;12.10;97.30;;;;;;5100138;28;20186;-79
2021/10/02 07:16:47;;;;;;;9.90;4.20;;;12.20;97.30;;;;;;5096193;28;20360;-79
2021/10/02 07:19:13;;;;;;;6.87;4.90;;;12.30;97.30;;;;;;5093453;28;20428;-80
2021/10/02 07:21:39;;;;;;;6.40;4.57;;;12.50;97.30;;;;;;5092896;28;20456;-80
2021/10/02 07:24:05;;;;;;;6.77;4.50;;;12.70;97.30;;;;;;5083057;28;20495;-79
2021/10/02 07:26:31;;;;;;;7.83;4.50;;;12.90;97.30;;;;;;5098436;28;20416;-79
2021/10/02 07:28:57;;;;;;;6.20;4.40;;;13.10;97.30;;;;;;5094434;28;20199;-80
2021/10/02 07:31:22;;;;;;;5.87;4.10;;;13.20;97.30;;;;;;5084977;28;20496;-79
2021/10/02 07:33:49;;;;;;;6.40;3.60;;;13.40;97.30;;;;;;5088247;28;20249;-79
2021/10/02 07:36:16;;;;;;;6.50;3.70;;;13.60;97.30;;;;;;5077978;28;20783;-77
2021/10/02 07:38:42;;;;;;;6.77;3.80;;;13.70;97.30;;;;;;5083727;28;20418;-80
2021/10/02 07:41:10;;;;;;;8.43;3.50;;;13.80;97.30;;;;;;5076403;28;20402;-80
2021/10/02 07:43:36;;;;;;;5.13;3.37;;;13.90;97.30;;;;;;5077084;28;20441;-79
2021/10/02 07:46:02;;;;;;;5.53;4.00;;;14.10;97.30;;;;;;5077917;28;20409;-80
2021/10/02 07:48:28;;;;;;;4.63;3.10;;;14.30;97.30;;;;;;5082556;28;20170;-80
2021/10/02 07:50:54;;;;;;;5.60;3.47;;;14.40;97.30;;;;;;5099953;28;20194;-80
2021/10/02 07:53:22;;;;;;;6.90;3.90;;;14.60;97.30;;;;;;5099012;28;20489;-79
2021/10/02 07:55:51;;;;;;;7.40;3.30;;;14.80;97.30;;;;;;5095668;28;20406;-80
2021/10/02 07:58:20;;;;;;;4.80;3.13;;;14.90;97.30;;;;;;5098453;28;20448;-80
2021/10/02 08:00:46;;;;;;;5.50;3.37;;;15.10;97.30;;;;;;5078948;28;20413;-80
2021/10/02 08:03:12;;;;;;;5.80;3.10;;;15.20;97.30;;;;;;5076971;28;20440;-80
2021/10/02 08:05:39;;;;;;;6.13;3.47;;;15.30;97.30;;;;;;5090754;28;20212;-78
2021/10/02 08:08:06;;;;;;;8.23;3.93;;;15.40;97.30;;;;;;5086605;28;20420;-80
2021/10/02 08:10:32;;;;;;;5.07;3.43;;;15.50;97.30;;;;;;5076722;28;20480;-80
2021/10/02 08:12:57;;;;;;;5.87;3.57;;;15.60;97.30;;;;;;5078459;28;20409;-80
2021/10/02 08:15:23;;;;;;;5.83;3.00;;;15.70;97.30;;;;;;5076952;28;20416;-79
2021/10/02 08:17:53;;;;;;;6.00;2.80;;;15.90;97.30;;;;;;5076985;28;20203;-80
2021/10/02 08:20:19;;;;;;;3.80;3.17;;;15.90;97.30;;;;;;5076271;28;20183;-79
2021/10/02 08:22:51;;;;;;;6.07;3.57;;;15.90;97.30;;;;;;5075622;28;20882;-79
2021/10/02 08:25:18;;;;;;;7.73;3.27;;;15.90;97.30;;;;;;5076332;28;20449;-79
2021/10/02 08:27:46;;;;;;;2.70;2.40;;;16.10;97.30;;;;;;5075969;28;20485;-79
2021/10/02 08:30:14;;;;;;;3.70;3.00;;;16.30;97.30;;;;;;5075081;28;20901;-79
2021/10/02 08:32:41;;;;;;;4.40;2.60;;;16.50;97.30;;;;;;5075235;28;21116;-81
2021/10/02 08:35:08;;;;;;;6.13;3.03;;;16.70;97.30;;;;;;5075438;28;20434;-80
2021/10/02 08:37:35;;;;;;;3.40;2.53;;;16.80;97.30;;;;;;5075355;28;20405;-79
2021/10/02 08:40:02;;;;;;;3.57;2.90;;;16.90;97.30;;;;;;5075440;28;20920;-79
2021/10/02 08:42:28;;;;;;;4.57;2.33;;;17.00;97.30;;;;;;5075792;28;21057;-80
2021/10/02 08:44:55;;;;;;;4.70;2.80;;;17.20;97.30;;;;;;5076468;28;20430;-78
2021/10/02 08:47:22;;;;;;;8.70;2.70;;;17.20;97.30;;;;;;5076047;28;20438;-79
2021/10/02 08:49:48;;;;;;;5.20;3.13;;;17.10;96.80;;;;;;5076711;28;20442;-82
2021/10/02 08:52:17;;;;;;;7.23;3.00;;;17.20;96.50;;;;;;5075880;28;20495;-81
2021/10/02 08:54:46;;;;;;;4.40;3.30;;;17.20;96.30;;;;;;5076530;28;20763;-83
2021/10/02 08:57:23;;;;;;;7.80;3.07;;;17.30;96.30;;;;;;5075661;28;20410;-81
2021/10/02 08:59:51;;;;;;;4.63;3.03;;;17.40;96.30;;;;;;5077159;28;20803;-81
2021/10/02 09:02:17;;;;;;;6.10;4.07;;;17.50;97.10;;;;;;5075266;28;20417;-86
2021/10/02 09:04:44;;;;;;;6.00;2.80;;;17.60;96.70;;;;;;5075718;28;21117;-81
2021/10/02 09:07:10;;;;;;;4.33;2.90;;;17.60;95.60;;;;;;5075337;28;20428;-80
2021/10/02 09:09:36;;;;;;;4.83;3.00;;;17.60;96.10;;;;;;5075348;28;20971;-81
2021/10/02 09:12:04;;;;;;;7.13;2.80;;;17.50;96.20;;;;;;5075637;28;20937;-80
2021/10/02 09:14:29;;;;;;;7.90;3.60;;;17.50;96.00;;;;;;5075446;28;20448;-80
2021/10/02 09:16:55;;;;;;;10.10;3.60;;;17.50;95.80;;;;;;5076093;28;20411;-80
2021/10/02 09:19:21;;;;;;;4.90;2.77;;;17.50;96.20;;;;;;5075292;28;20683;-81
2021/10/02 09:22:05;;;;;;;5.57;2.93;;;17.50;95.70;;;;;;5075337;28;20183;-81
2021/10/02 09:24:36;;;;;;;6.20;3.67;;;17.70;95.80;;;;;;5075146;28;20506;-81
2021/10/02 09:27:03;;;;;;;7.60;2.97;;;17.80;95.30;;;;;;5075576;28;20425;-81
2021/10/02 09:29:42;;;;;;;5.00;3.43;;;18.00;96.10;;;;;;5075194;28;20496;-80
2021/10/02 09:32:11;;;;;;;6.30;2.83;;;18.20;94.40;;;;;;5075032;28;20836;-80
2021/10/02 09:35:16;;;;;;;6.20;2.50;;;18.30;94.50;;;;;;5075380;28;20445;-80
2021/10/02 09:37:44;;;;;;;6.70;3.30;;;18.50;93.80;;;;;;5068797;28;20420;-80
2021/10/02 09:40:17;;;;;;;5.90;3.20;;;18.60;93.30;;;;;;5075177;28;20417;-80
2021/10/02 09:42:54;;;;;;;5.07;2.90;;;18.70;93.20;;;;;;5074672;28;20424;-80
2021/10/02 09:45:28;;;;;;;4.30;2.87;;;18.80;93.30;;;;;;5074477;28;20425;-80
2021/10/02 09:48:00;;;;;;;5.13;2.97;;;18.90;92.60;;;;;;5074845;28;20416;-81
2021/10/02 09:50:35;;;;;;;4.27;2.40;;;19.00;92.80;;;;;;5075035;28;20461;-81
2021/10/02 09:53:04;;;;;;;4.63;2.27;;;19.10;92.50;;;;;;5072785;28;20472;-80
2021/10/02 09:55:38;;;;;;;3.83;2.97;;;19.20;91.90;;;;;;5073653;28;20477;-82
2021/10/02 09:58:10;;;;;;;3.00;2.23;;;19.10;90.50;;;;;;5073404;28;20431;-81
2021/10/02 10:00:38;;;;;;;8.03;3.00;;;18.90;91.20;;;;;;5073570;28;20425;-81
2021/10/02 10:03:07;;;;;;;3.20;2.60;;;18.70;91.30;;;;;;5074506;28;20512;-81
2021/10/02 10:05:39;;;;;;;7.93;2.97;;;18.60;91.90;;;;;;5074100;28;20410;-81
2021/10/02 10:08:07;;;;;;;4.27;3.07;;;18.60;92.30;;;;;;5072763;28;20424;-80
2021/10/02 10:10:38;;;;;;;9.60;5.77;;;18.60;93.00;;;;;;5072909;28;20843;-81
2021/10/02 10:13:16;;;;;;;14.33;7.80;;;18.70;92.60;;;;;;5075018;28;21080;-80
2021/10/02 10:15:47;;;;;;;12.97;7.07;;;18.90;93.70;;;;;;5073690;28;20837;-81
2021/10/02 10:18:29;;;;;;;6.20;2.90;;;19.10;93.60;;;;;;5073917;28;20495;-81
2021/10/02 10:20:57;;;;;;;10.40;5.83;;;19.30;92.50;;;;;;5073194;28;20452;-80
2021/10/02 10:23:38;;;;;;;7.33;2.93;;;19.40;92.00;;;;;;5072461;28;20468;-80
2021/10/02 10:26:26;;;;;;;6.90;2.67;;;19.50;90.60;;;;;;5073575;28;20421;-81
2021/10/02 10:28:51;;;;;;;5.83;3.50;;;19.50;89.80;;;;;;5076048;28;20409;-82
2021/10/02 10:31:26;;;;;;;6.23;3.30;;;19.60;89.60;;;;;;5074447;28;20417;-79
2021/10/02 10:33:57;;;;;;;12.50;5.63;;;19.70;89.10;;;;;;5071978;28;20195;-79
2021/10/02 10:36:28;;;;;;;4.43;3.13;;;19.80;89.40;;;;;;5071975;28;20414;-78
2021/10/02 10:38:53;;;;;;;6.93;2.60;;;19.80;89.40;;;;;;5073114;28;20432;-79
2021/10/02 10:41:22;;;;;;;4.30;2.60;;;19.80;89.20;;;;;;5072533;28;20413;-77
2021/10/02 10:43:48;;;;;;;4.57;2.60;;;19.90;89.40;;;;;;5071561;28;20301;-78
2021/10/02 10:46:16;;;;;;;7.00;4.23;;;20.00;89.20;;;;;;5071813;28;20424;-77
2021/10/02 10:48:42;;;;;;;8.33;4.33;;;20.20;90.30;;;;;;5071838;28;20426;-79
2021/10/02 10:51:11;;;;;;;5.43;2.67;;;20.20;89.10;;;;;;5071008;28;20417;-77
2021/10/02 10:53:40;;;;;;;4.70;2.30;;;20.20;88.70;;;;;;5073018;28;20528;-79
2021/10/02 10:56:08;;;;;;;16.43;7.30;;;20.30;88.80;;;;;;5070751;28;20832;-79
2021/10/02 10:58:34;;;;;;;4.20;2.50;;;20.40;89.30;;;;;;5069424;28;20478;-78
2021/10/02 11:01:03;;;;;;;5.90;2.87;;;20.40;87.80;;;;;;5069982;28;20453;-79
2021/10/02 11:03:48;;;;;;;4.47;2.37;;;20.50;88.80;;;;;;5070445;28;20826;-84
2021/10/02 11:06:15;;;;;;;4.47;1.93;;;20.60;87.50;;;;;;5073788;28;20428;-79
2021/10/02 11:09:00;;;;;;;3.33;2.23;;;20.60;88.20;;;;;;5090935;28;20468;-81
2021/10/02 11:11:44;;;;;;;2.57;2.20;;;20.60;85.60;;;;;;5091607;28;20413;-82
2021/10/02 11:14:11;;;;;;;4.20;2.20;;;20.60;86.10;;;;;;5091095;28;20522;-81
2021/10/02 11:16:42;;;;;;;2.43;2.13;;;20.60;85.80;;;;;;5094211;28;20470;-82
2021/10/02 11:19:35;;;;;;;4.37;2.10;;;20.60;85.60;;;;;;5095471;28;20423;-80
2021/10/02 11:22:26;;;;;;;2.10;1.90;;;20.70;85.80;;;;;;5095674;28;20420;-80
2021/10/02 11:24:52;;;;;;;4.27;2.23;;;20.80;85.90;;;;;;5096127;28;20443;-80
2021/10/02 11:27:22;;;;;;;4.00;2.03;;;20.80;84.60;;;;;;5094302;28;20420;-80
2021/10/02 11:29:48;;;;;;;2.13;2.00;;;20.90;85.90;;;;;;5095255;28;20281;-81
2021/10/02 11:32:17;;;;;;;2.67;2.27;;;21.00;85.50;;;;;;5094786;28;20938;-81
2021/10/02 11:35:08;;;;;;;3.23;2.30;;;21.10;85.20;;;;;;5094892;28;20233;-81
2021/10/02 11:37:59;;;;;;;2.60;2.40;;;21.20;85.60;;;;;;5094627;28;20408;-79
2021/10/02 11:40:40;;;;;;;3.93;2.13;;;21.30;85.20;;;;;;5096634;28;20748;-80
2021/10/02 11:43:15;;;;;;;3.90;1.63;;;21.40;85.40;;;;;;5094860;28;20983;-80
2021/10/02 11:45:52;;;;;;;3.07;2.17;;;21.50;84.70;;;;;;5096039;28;20412;-81
2021/10/02 11:48:30;;;;;;;2.20;1.93;;;21.50;83.30;;;;;;5094592;28;20428;-80
2021/10/02 11:51:29;;;;;;;3.10;1.77;;;21.50;82.80;;;;;;5094765;28;20803;-81
2021/10/02 11:54:15;;;;;;;3.53;2.10;;;21.50;82.90;;;;;;5094324;28;21032;-80
2021/10/02 11:56:41;;;;;;;8.30;2.30;;;21.60;82.10;;;;;;5094729;28;20426;-82
2021/10/02 11:59:07;;;;;;;3.97;2.10;;;21.60;82.30;;;;;;5095298;28;20420;-81
2021/10/02 12:01:43;;;;;;;1.90;1.70;;;21.70;82.40;;;;;;5094682;28;20439;-82
2021/10/02 12:04:12;;;;;;;3.47;2.30;;;21.90;82.90;;;;;;5096288;28;20571;-81
2021/10/02 12:06:40;;;;;;;3.33;1.60;;;22.00;81.60;;;;;;5095602;28;20722;-81
2021/10/02 12:09:11;;;;;;;3.60;1.90;;;22.10;81.20;;;;;;5096504;28;20472;-81
2021/10/02 12:11:43;;;;;;;3.07;1.80;;;22.20;82.10;;;;;;5095475;28;20491;-81
2021/10/02 12:14:12;;;;;;;2.00;1.80;;;22.40;82.40;;;;;;5094942;28;20432;-81
2021/10/02 12:16:38;;;;;;;3.43;1.90;;;22.30;80.90;;;;;;5094338;28;20408;-81
2021/10/02 12:19:08;;;;;;;1.70;1.67;;;22.30;80.30;;;;;;5094835;28;20416;-81
2021/10/02 12:21:59;;;;;;;3.77;2.13;;;22.20;80.40;;;;;;5095039;28;20202;-81
2021/10/02 12:24:24;;;;;;;3.60;2.20;;;22.20;81.40;;;;;;5094577;28;20619;-81
2021/10/02 12:27:10;;;;;;;2.50;1.97;;;22.20;79.30;;;;;;5094668;28;20412;-81
2021/10/02 12:29:46;;;;;;;4.23;1.80;;;22.30;81.10;;;;;;5095002;28;20776;-80
2021/10/02 12:32:18;;;;;;;6.53;2.00;;;22.30;79.30;;;;;;5094855;28;20404;-82
2021/10/02 12:34:47;;;;;;;3.27;2.00;;;22.30;79.00;;;;;;5094882;28;20436;-83
2021/10/02 12:37:15;;;;;;;1.93;1.90;;;22.40;80.80;;;;;;5095393;28;20795;-81
2021/10/02 12:39:52;;;;;;;3.30;2.20;;;22.40;78.70;;;;;;5094974;28;20404;-81
2021/10/02 12:42:40;;;;;;;2.97;1.93;;;22.30;78.90;;;;;;5095134;28;20413;-81
2021/10/02 12:45:20;;;;;;;3.47;2.53;;;22.40;80.70;;;;;;5094725;28;20468;-81
2021/10/02 12:47:49;;;;;;;3.10;2.00;;;22.50;79.40;;;;;;5094685;28;20416;-81
2021/10/02 12:50:36;;;;;;;3.30;2.00;;;22.70;81.90;;;;;;5094283;28;20473;-82
2021/10/02 12:53:03;;;;;;;3.17;2.03;;;22.80;79.60;;;;;;5086706;28;20465;-81
2021/10/02 12:55:29;;;;;;;1.70;1.70;;;22.90;79.80;;;;;;5093829;28;20519;-81
2021/10/02 12:57:55;;;;;;;3.23;2.03;;;23.00;79.20;;;;;;5094162;28;21002;-82
2021/10/02 13:00:30;;;;;;;2.53;2.13;;;23.20;79.20;;;;;;5094400;28;20175;-82
2021/10/02 13:02:58;;;;;;;2.53;1.83;;;23.20;77.70;;;;;;5093293;28;20925;-82
2021/10/02 13:05:31;;;;;;;3.03;1.70;;;23.30;77.20;;;;;;5093704;28;20417;-85
2021/10/02 13:08:05;;;;;;;3.73;2.10;;;23.50;77.50;;;;;;5096045;28;20409;-82
2021/10/02 13:10:31;;;;;;;1.93;1.73;;;23.70;76.70;;;;;;5091661;28;21018;-82
2021/10/02 13:12:58;;;;;;;3.93;2.40;;;23.80;77.50;;;;;;5097700;28;20425;-82
2021/10/02 13:15:31;;;;;;;5.87;2.43;;;23.80;76.90;;;;;;5093796;28;20198;-82
2021/10/02 13:18:15;;;;;;;6.60;2.50;;;23.70;78.20;;;;;;5102811;28;20404;-82
2021/10/02 13:20:41;;;;;;;8.23;2.00;;;23.90;77.30;;;;;;5083410;28;20990;-82
2021/10/02 13:23:20;;;;;;;2.67;2.00;;;24.00;76.70;;;;;;5094409;28;20468;-83
2021/10/02 13:25:53;;;;;;;3.10;2.07;;;24.20;77.50;;;;;;5080894;28;20498;-82
2021/10/02 13:28:25;;;;;;;5.63;2.13;;;24.30;77.90;;;;;;5102287;28;20409;-82
2021/10/02 13:30:55;;;;;;;3.87;2.43;;;24.50;76.10;;;;;;5100679;28;20840;-82
2021/10/02 13:33:25;;;;;;;3.87;1.93;;;24.40;74.70;;;;;;5099765;28;20441;-82
2021/10/02 13:35:57;;;;;;;1.87;1.80;;;24.20;74.00;;;;;;5100837;28;20853;-82
2021/10/02 13:38:30;;;;;;;3.53;1.87;;;24.10;75.40;;;;;;5101374;28;20409;-83
2021/10/02 13:41:00;;;;;;;4.37;1.90;;;24.10;75.30;;;;;;5098606;28;20443;-82
2021/10/02 13:43:27;;;;;;;3.17;2.10;;;24.20;74.30;;;;;;5084847;28;20445;-83
2021/10/02 13:45:53;;;;;;;2.63;1.80;;;24.30;74.90;;;;;;5073713;28;21114;-83
2021/10/02 13:48:30;;;;;;;2.23;1.60;;;24.40;75.50;;;;;;5074172;28;20429;-83